Time;durP1;ratioP1;P1;durP2;ratioP2;P2;SDS_P1;SDS_P2;PMS_P1;PMS_P2;Temp;Humidity;BMP_temperature;BMP_pressure;BME280_temperature;BME280_humidity;BME280_pressure;Samples;Min_cycle;Max_cycle;Signal;HPM_P1;HPM_P2
2022/11/30 00:00:31;;;;;;;;;;;;;;;39.13;nan;101342.63;5073199;28;20397;-59
2022/11/30 00:02:57;;;;;;;;;;;;;;;39.94;nan;101344.41;5067418;28;20019;-59
2022/11/30 00:05:23;;;;;;;;;;;;;;;40.20;nan;101351.72;5066862;28;19920;-59
2022/11/30 00:07:50;;;;;;;;;;;;;;;40.07;nan;101336.72;5068025;28;19921;-59
2022/11/30 00:10:16;;;;;;;;;;;;;;;39.77;nan;101344.50;5069344;28;19917;-59
2022/11/30 00:12:43;;;;;;;;;;;;;;;39.54;nan;101344.78;5068882;28;19920;-59
2022/11/30 00:15:13;;;;;;;;;;;;;;;39.64;nan;101346.50;5065507;28;20019;-58
2022/11/30 00:17:39;;;;;;;;;;;;;;;39.46;nan;101349.03;5068464;28;19935;-57
2022/11/30 00:20:06;;;;;;;;;;;;;;;39.29;nan;101357.59;5107524;27;19917;-58
2022/11/30 00:22:33;;;;;;;;;;;;;;;39.19;nan;101355.88;5080082;28;19917;-58
2022/11/30 00:25:01;;;;;;;;;;;;;;;39.06;nan;101349.28;5078370;28;19959;-61
2022/11/30 00:27:31;;;;;;;;;;;;;;;38.96;nan;101356.03;5087763;28;20350;-60
2022/11/30 00:29:58;;;;;;;;;;;;;;;38.82;nan;101362.09;5075607;28;19986;-60
2022/11/30 00:32:27;;;;;;;;;;;;;;;38.60;nan;101368.31;5075736;28;19957;-57
2022/11/30 00:34:54;;;;;;;;;;;;;;;38.45;nan;101364.19;5092565;28;19966;-59
2022/11/30 00:37:21;;;;;;;;;;;;;;;38.25;nan;101360.63;5076500;28;19920;-59
2022/11/30 00:39:47;;;;;;;;;;;;;;;38.13;nan;101358.44;5076030;28;19920;-60
2022/11/30 00:42:13;;;;;;;;;;;;;;;37.82;nan;101364.34;5089818;28;20498;-60
2022/11/30 00:44:40;;;;;;;;;;;;;;;37.68;nan;101370.28;5079231;28;19927;-59
2022/11/30 00:47:06;;;;;;;;;;;;;;;37.66;nan;101378.44;5090750;28;19923;-62
2022/11/30 00:49:32;;;;;;;;;;;;;;;37.56;nan;101374.59;5075649;28;19920;-59
2022/11/30 00:51:59;;;;;;;;;;;;;;;37.47;nan;101377.97;5075711;28;19953;-58
2022/11/30 00:54:26;;;;;;;;;;;;;;;37.32;nan;101390.03;5075786;28;19963;-60
2022/11/30 00:56:52;;;;;;;;;;;;;;;36.98;nan;101387.38;5075832;28;19943;-60
2022/11/30 00:59:18;;;;;;;;;;;;;;;36.77;nan;101392.13;5073370;28;19921;-58
2022/11/30 01:01:44;;;;;;;;;;;;;;;36.63;nan;101395.22;5075483;28;19920;-59
2022/11/30 01:04:11;;;;;;;;;;;;;;;36.67;nan;101395.16;5075646;28;19916;-59
2022/11/30 01:06:37;;;;;;;;;;;;;;;36.73;nan;101390.59;5075570;28;19928;-58
2022/11/30 01:09:03;;;;;;;;;;;;;;;36.77;nan;101397.78;5075481;28;19923;-59
2022/11/30 01:11:30;;;;;;;;;;;;;;;36.70;nan;101400.75;5075501;28;19966;-61
2022/11/30 01:13:59;;;;;;;;;;;;;;;36.66;nan;101394.34;5075537;28;19916;-59
2022/11/30 01:16:28;;;;;;;;;;;;;;;36.76;nan;101395.38;5075505;28;19920;-59
2022/11/30 01:18:54;;;;;;;;;;;;;;;36.73;nan;101399.09;5076511;28;19924;-57
2022/11/30 01:21:22;;;;;;;;;;;;;;;36.75;nan;101397.44;5095806;28;19920;-59
2022/11/30 01:23:48;;;;;;;;;;;;;;;36.71;nan;101396.69;5095522;28;19963;-59
2022/11/30 01:26:15;;;;;;;;;;;;;;;36.61;nan;101398.44;5086386;28;19920;-59
2022/11/30 01:28:43;;;;;;;;;;;;;;;36.58;nan;101401.34;5075255;28;20011;-59
2022/11/30 01:31:10;;;;;;;;;;;;;;;36.53;nan;101410.31;5075237;28;19924;-59
2022/11/30 01:33:37;;;;;;;;;;;;;;;36.47;nan;101409.19;5075130;28;19916;-59
2022/11/30 01:36:05;;;;;;;;;;;;;;;36.50;nan;101411.19;5074344;28;19921;-59
2022/11/30 01:38:36;;;;;;;;;;;;;;;36.15;nan;101407.59;5074141;28;19920;-56
2022/11/30 01:41:02;;;;;;;;;;;;;;;35.81;nan;101418.09;5075072;28;20335;-60
2022/11/30 01:43:43;;;;;;;;;;;;;;;35.62;nan;101411.81;5075232;28;19924;-58
2022/11/30 01:46:21;;;;;;;;;;;;;;;35.82;nan;101414.84;5074854;28;19948;-58
2022/11/30 01:48:53;;;;;;;;;;;;;;;35.94;nan;101410.69;5074601;28;19986;-59
2022/11/30 01:51:20;;;;;;;;;;;;;;;35.93;nan;101418.38;5073894;28;19921;-59
2022/11/30 01:53:46;;;;;;;;;;;;;;;35.70;nan;101416.16;5074377;28;20003;-60
2022/11/30 01:56:12;;;;;;;;;;;;;;;35.92;nan;101415.97;5074282;28;19920;-59
2022/11/30 01:58:39;;;;;;;;;;;;;;;35.40;nan;101425.38;5073425;28;20401;-60
2022/11/30 02:01:05;;;;;;;;;;;;;;;35.68;nan;101421.44;5073963;28;20011;-59
2022/11/30 02:03:41;;;;;;;;;;;;;;;35.67;nan;101427.53;5071741;28;20333;-60
2022/11/30 02:06:07;;;;;;;;;;;;;;;35.67;nan;101419.03;5071026;28;20401;-60
2022/11/30 02:08:33;;;;;;;;;;;;;;;35.60;nan;101428.41;5073763;28;19923;-58
2022/11/30 02:11:03;;;;;;;;;;;;;;;35.53;nan;101428.47;5073361;28;20382;-61
2022/11/30 02:13:48;;;;;;;;;;;;;;;35.42;nan;101430.63;5072900;28;19916;-60
2022/11/30 02:16:20;;;;;;;;;;;;;;;35.45;nan;101432.59;5071145;28;19921;-58
2022/11/30 02:18:56;;;;;;;;;;;;;;;35.54;nan;101430.06;5073652;28;20460;-61
2022/11/30 02:21:22;;;;;;;;;;;;;;;35.50;nan;101437.78;5071893;28;19920;-59
2022/11/30 02:24:04;;;;;;;;;;;;;;;35.23;nan;101436.81;5065592;28;20306;-60
2022/11/30 02:26:30;;;;;;;;;;;;;;;35.18;nan;101443.72;5076004;28;19927;-60
2022/11/30 02:28:59;;;;;;;;;;;;;;;35.17;nan;101453.41;5072651;28;19916;-59
2022/11/30 02:31:28;;;;;;;;;;;;;;;35.06;nan;101452.72;5080511;28;19927;-60
2022/11/30 02:33:57;;;;;;;;;;;;;;;35.19;nan;101458.63;5078028;28;20007;-59
2022/11/30 02:36:25;;;;;;;;;;;;;;;35.21;nan;101464.72;5070447;28;19966;-59
2022/11/30 02:38:51;;;;;;;;;;;;;;;35.18;nan;101457.84;5074644;28;19963;-59
2022/11/30 02:41:17;;;;;;;;;;;;;;;35.19;nan;101453.00;5074755;28;19947;-59
2022/11/30 02:43:44;;;;;;;;;;;;;;;35.16;nan;101453.81;5079367;28;19924;-58
2022/11/30 02:46:14;;;;;;;;;;;;;;;35.07;nan;101455.13;5082645;28;19920;-59
2022/11/30 02:48:52;;;;;;;;;;;;;;;35.05;nan;101460.38;5087675;28;19927;-58
2022/11/30 02:51:21;;;;;;;;;;;;;;;35.02;nan;101458.41;5076123;28;20436;-59
2022/11/30 02:53:47;;;;;;;;;;;;;;;35.03;nan;101459.19;5083670;28;19942;-58
2022/11/30 02:56:14;;;;;;;;;;;;;;;35.04;nan;101458.78;5080991;28;20729;-60
2022/11/30 02:58:40;;;;;;;;;;;;;;;34.96;nan;101457.22;5087073;28;19916;-58
2022/11/30 03:01:07;;;;;;;;;;;;;;;34.92;nan;101464.91;5076111;28;19928;-59
2022/11/30 03:03:33;;;;;;;;;;;;;;;35.01;nan;101462.44;5087584;28;19921;-59
2022/11/30 03:05:59;;;;;;;;;;;;;;;34.90;nan;101460.91;5081593;28;19963;-59
2022/11/30 03:08:25;;;;;;;;;;;;;;;34.88;nan;101466.16;5069617;28;20381;-58
2022/11/30 03:10:51;;;;;;;;;;;;;;;34.80;nan;101471.00;5066622;28;20325;-59
2022/11/30 03:13:18;;;;;;;;;;;;;;;34.79;nan;101477.88;5052161;28;20510;-60
2022/11/30 03:15:44;;;;;;;;;;;;;;;34.77;nan;101480.31;5063710;28;19924;-60
2022/11/30 03:18:10;;;;;;;;;;;;;;;34.73;nan;101477.50;5063757;28;20055;-60
2022/11/30 03:20:41;;;;;;;;;;;;;;;34.54;nan;101475.22;5058445;28;19983;-60
2022/11/30 03:23:07;;;;;;;;;;;;;;;34.57;nan;101479.22;5065585;28;19924;-59
2022/11/30 03:25:33;;;;;;;;;;;;;;;34.52;nan;101491.75;5065260;28;19921;-58
2022/11/30 03:28:01;;;;;;;;;;;;;;;34.26;nan;101490.22;5096933;28;19928;-58
2022/11/30 03:30:27;;;;;;;;;;;;;;;34.24;nan;101495.47;5069548;28;19928;-61
2022/11/30 03:32:53;;;;;;;;;;;;;;;34.15;nan;101497.94;5066245;28;19921;-59
2022/11/30 03:35:19;;;;;;;;;;;;;;;34.24;nan;101492.63;5066461;28;20431;-58
2022/11/30 03:37:46;;;;;;;;;;;;;;;34.29;nan;101497.06;5067169;28;19924;-58
2022/11/30 03:40:12;;;;;;;;;;;;;;;34.39;nan;101502.69;5070160;28;19951;-61
2022/11/30 03:42:39;;;;;;;;;;;;;;;34.28;nan;101492.63;5067287;28;19928;-58
2022/11/30 03:45:05;;;;;;;;;;;;;;;34.34;nan;101493.81;5064234;28;19954;-56
2022/11/30 03:47:31;;;;;;;;;;;;;;;34.24;nan;101501.09;5069826;28;19924;-61
2022/11/30 03:49:58;;;;;;;;;;;;;;;34.01;nan;101500.78;5067495;28;20426;-59
2022/11/30 03:52:24;;;;;;;;;;;;;;;34.12;nan;101507.22;5067387;28;19925;-58
2022/11/30 03:54:50;;;;;;;;;;;;;;;34.09;nan;101522.09;5068132;28;20397;-57
2022/11/30 03:57:16;;;;;;;;;;;;;;;33.84;nan;101524.97;5069537;28;19916;-60
2022/11/30 03:59:43;;;;;;;;;;;;;;;33.97;nan;101525.38;5071910;28;19951;-59
2022/11/30 04:02:09;;;;;;;;;;;;;;;33.99;nan;101522.97;5064412;28;19921;-59
2022/11/30 04:04:35;;;;;;;;;;;;;;;34.07;nan;101527.34;5066610;28;20374;-60
2022/11/30 04:07:03;;;;;;;;;;;;;;;34.10;nan;101524.53;5062181;28;19955;-60
2022/11/30 04:09:29;;;;;;;;;;;;;;;34.20;nan;101522.91;5063766;28;19921;-61
2022/11/30 04:11:56;;;;;;;;;;;;;;;34.23;nan;101530.53;5094771;28;19916;-60
2022/11/30 04:14:22;;;;;;;;;;;;;;;34.11;nan;101534.63;5061275;28;20036;-59
2022/11/30 04:16:48;;;;;;;;;;;;;;;34.01;nan;101538.25;5058448;28;19925;-62
2022/11/30 04:19:15;;;;;;;;;;;;;;;33.77;nan;101531.44;5069508;28;19928;-60
2022/11/30 04:21:41;;;;;;;;;;;;;;;33.77;nan;101533.44;5072917;28;19952;-59
2022/11/30 04:24:07;;;;;;;;;;;;;;;33.59;nan;101545.53;5067487;28;19938;-59
2022/11/30 04:26:33;;;;;;;;;;;;;;;33.64;nan;101547.13;5071785;28;20015;-61
2022/11/30 04:29:00;;;;;;;;;;;;;;;33.63;nan;101549.16;5097911;28;20279;-60
2022/11/30 04:31:26;;;;;;;;;;;;;;;33.70;nan;101556.00;5067937;28;20320;-61
2022/11/30 04:33:53;;;;;;;;;;;;;;;33.71;nan;101555.59;5068013;28;19965;-62
2022/11/30 04:36:20;;;;;;;;;;;;;;;33.61;nan;101553.59;5083048;28;19974;-62
2022/11/30 04:38:46;;;;;;;;;;;;;;;33.58;nan;101557.22;5078186;28;19912;-60
2022/11/30 04:41:13;;;;;;;;;;;;;;;33.59;nan;101561.66;5089738;28;20268;-60
2022/11/30 04:43:39;;;;;;;;;;;;;;;33.59;nan;101553.19;5082456;28;19973;-60
2022/11/30 04:46:06;;;;;;;;;;;;;;;33.57;nan;101564.03;5075018;28;20015;-59
2022/11/30 04:48:32;;;;;;;;;;;;;;;33.35;nan;101563.22;5087647;28;20005;-60
2022/11/30 04:51:03;;;;;;;;;;;;;;;33.58;nan;101571.31;5078158;28;19924;-59
2022/11/30 04:53:29;;;;;;;;;;;;;;;33.47;nan;101564.84;5082497;28;20299;-61
2022/11/30 04:55:55;;;;;;;;;;;;;;;33.32;nan;101564.84;5075252;28;19920;-59
2022/11/30 04:58:22;;;;;;;;;;;;;;;33.41;nan;101569.28;5069124;28;19925;-59
2022/11/30 05:00:48;;;;;;;;;;;;;;;33.56;nan;101568.06;5069284;28;19966;-59
2022/11/30 05:03:15;;;;;;;;;;;;;;;33.34;nan;101576.50;5069151;28;19961;-60
2022/11/30 05:05:41;;;;;;;;;;;;;;;33.33;nan;101576.91;5075358;28;20366;-59
2022/11/30 05:08:08;;;;;;;;;;;;;;;33.32;nan;101570.47;5067523;28;19932;-60
2022/11/30 05:10:34;;;;;;;;;;;;;;;33.01;nan;101576.81;5055305;28;19916;-62
2022/11/30 05:13:00;;;;;;;;;;;;;;;33.21;nan;101578.06;5057441;28;20297;-60
2022/11/30 05:15:28;;;;;;;;;;;;;;;33.10;nan;101576.44;5052658;28;20299;-63
2022/11/30 05:17:57;;;;;;;;;;;;;;;32.90;nan;101573.97;5060218;28;20002;-60
2022/11/30 05:20:23;;;;;;;;;;;;;;;33.04;nan;101581.66;5063438;28;19927;-59
2022/11/30 05:22:49;;;;;;;;;;;;;;;33.04;nan;101582.47;5068148;28;19982;-60
2022/11/30 05:25:16;;;;;;;;;;;;;;;33.11;nan;101590.13;5060235;28;19927;-61
2022/11/30 05:27:42;;;;;;;;;;;;;;;33.15;nan;101587.31;5074609;28;19924;-59
2022/11/30 05:30:09;;;;;;;;;;;;;;;33.17;nan;101591.34;5074794;28;20074;-59
2022/11/30 05:32:35;;;;;;;;;;;;;;;33.16;nan;101592.53;5055749;28;19920;-59
2022/11/30 05:35:01;;;;;;;;;;;;;;;33.13;nan;101584.91;5069081;28;20003;-62
2022/11/30 05:37:28;;;;;;;;;;;;;;;33.08;nan;101593.75;5055826;28;19921;-59
2022/11/30 05:39:54;;;;;;;;;;;;;;;32.97;nan;101590.06;5056676;28;19932;-60
2022/11/30 05:42:20;;;;;;;;;;;;;;;32.94;nan;101593.69;5055019;28;19921;-60
2022/11/30 05:44:46;;;;;;;;;;;;;;;33.00;nan;101586.47;5057046;28;20363;-59
2022/11/30 05:47:13;;;;;;;;;;;;;;;32.90;nan;101598.50;5055025;28;19924;-59
2022/11/30 05:49:39;;;;;;;;;;;;;;;32.86;nan;101597.69;5057179;28;19967;-60
2022/11/30 05:52:06;;;;;;;;;;;;;;;32.55;nan;101597.13;5036321;28;19974;-60
2022/11/30 05:54:33;;;;;;;;;;;;;;;32.74;nan;101605.25;5072750;28;19928;-59
2022/11/30 05:56:59;;;;;;;;;;;;;;;32.52;nan;101606.34;5057636;28;19963;-60
2022/11/30 05:59:28;;;;;;;;;;;;;;;32.57;nan;101600.34;5068598;28;20415;-58
2022/11/30 06:01:54;;;;;;;;;;;;;;;32.44;nan;101601.88;5062185;28;19928;-59
2022/11/30 06:04:21;;;;;;;;;;;;;;;32.23;nan;101604.53;5061757;28;19925;-59
2022/11/30 06:06:48;;;;;;;;;;;;;;;32.26;nan;101598.13;5069333;28;19921;-60
2022/11/30 06:09:14;;;;;;;;;;;;;;;31.88;nan;101608.69;5062148;28;19924;-59
2022/11/30 06:11:40;;;;;;;;;;;;;;;31.93;nan;101613.13;5063752;28;19970;-61
2022/11/30 06:14:07;;;;;;;;;;;;;;;32.05;nan;101608.03;5065151;28;19916;-57
2022/11/30 06:16:33;;;;;;;;;;;;;;;32.06;nan;101609.63;5064035;28;19997;-60
2022/11/30 06:18:59;;;;;;;;;;;;;;;32.25;nan;101616.19;5064249;28;20019;-60
2022/11/30 06:21:25;;;;;;;;;;;;;;;32.03;nan;101613.22;5065396;28;19917;-60
2022/11/30 06:23:51;;;;;;;;;;;;;;;32.00;nan;101607.59;5064705;28;19916;-60
2022/11/30 06:26:18;;;;;;;;;;;;;;;32.11;nan;101614.88;5062805;28;19924;-62
2022/11/30 06:28:44;;;;;;;;;;;;;;;32.11;nan;101608.47;5065352;28;20312;-59
2022/11/30 06:31:10;;;;;;;;;;;;;;;32.21;nan;101601.31;5064637;28;19921;-61
2022/11/30 06:33:36;;;;;;;;;;;;;;;32.04;nan;101611.22;5063488;28;19920;-60
2022/11/30 06:36:03;;;;;;;;;;;;;;;32.00;nan;101608.41;5064920;28;19928;-62
2022/11/30 06:38:29;;;;;;;;;;;;;;;31.80;nan;101610.66;5062902;28;20404;-60
2022/11/30 06:41:02;;;;;;;;;;;;;;;32.01;nan;101612.00;5046172;28;19959;-60
2022/11/30 06:43:31;;;;;;;;;;;;;;;31.99;nan;101606.78;5061173;28;20379;-61
2022/11/30 06:45:57;;;;;;;;;;;;;;;31.99;nan;101615.22;5064500;28;19917;-61
2022/11/30 06:48:23;;;;;;;;;;;;;;;32.14;nan;101614.13;5062334;28;19929;-59
2022/11/30 06:50:49;;;;;;;;;;;;;;;32.23;nan;101610.97;5064691;28;19963;-60
2022/11/30 06:53:16;;;;;;;;;;;;;;;32.13;nan;101614.50;5065974;28;20283;-60
2022/11/30 06:55:42;;;;;;;;;;;;;;;32.04;nan;101609.22;5063082;28;19974;-60
2022/11/30 06:58:09;;;;;;;;;;;;;;;32.04;nan;101612.03;5062585;28;20008;-60
2022/11/30 07:00:36;;;;;;;;;;;;;;;32.03;nan;101613.22;5063745;28;19967;-61
2022/11/30 07:03:03;;;;;;;;;;;;;;;31.89;nan;101613.13;5065409;28;19917;-60
2022/11/30 07:05:31;;;;;;;;;;;;;;;31.86;nan;101611.09;5060981;28;20424;-60
2022/11/30 07:07:57;;;;;;;;;;;;;;;31.96;nan;101613.19;5063870;28;19920;-60
2022/11/30 07:10:23;;;;;;;;;;;;;;;31.98;nan;101605.16;5044719;28;19929;-60
2022/11/30 07:12:50;;;;;;;;;;;;;;;31.96;nan;101613.19;5064601;28;20328;-60
2022/11/30 07:15:16;;;;;;;;;;;;;;;31.92;nan;101606.72;5064863;28;20473;-61
2022/11/30 07:17:42;;;;;;;;;;;;;;;31.88;nan;101605.88;5062584;28;20386;-59
2022/11/30 07:20:09;;;;;;;;;;;;;;;31.77;nan;101604.97;5056416;28;19924;-61
2022/11/30 07:22:35;;;;;;;;;;;;;;;31.75;nan;101601.75;5061418;28;19917;-60
2022/11/30 07:27:45;;;;;;;;;;;;;;;31.73;nan;101596.50;5063548;28;19921;-60
2022/11/30 07:30:12;;;;;;;;;;;;;;;31.77;nan;101590.91;5061653;28;20345;-60
2022/11/30 07:32:38;;;;;;;;;;;;;;;31.76;nan;101592.13;5055095;28;19982;-62
2022/11/30 07:35:04;;;;;;;;;;;;;;;31.69;nan;101592.03;5064539;28;20276;-60
2022/11/30 07:37:31;;;;;;;;;;;;;;;31.67;nan;101595.25;5067459;28;19917;-61
2022/11/30 07:39:57;;;;;;;;;;;;;;;31.05;nan;101602.56;5060926;28;19920;-61
2022/11/30 07:42:23;;;;;;;;;;;;;;;31.34;nan;101598.13;5060257;28;20387;-62
2022/11/30 07:44:49;;;;;;;;;;;;;;;30.92;nan;101597.25;5068567;28;19925;-61
2022/11/30 07:47:15;;;;;;;;;;;;;;;31.16;nan;101586.66;5055917;28;19916;-61
2022/11/30 07:49:42;;;;;;;;;;;;;;;31.30;nan;101595.28;5065977;28;19925;-61
2022/11/30 07:52:08;;;;;;;;;;;;;;;31.10;nan;101596.66;5061148;28;19923;-61
2022/11/30 07:54:34;;;;;;;;;;;;;;;31.30;nan;101586.84;5085575;28;20012;-61
2022/11/30 07:57:01;;;;;;;;;;;;;;;31.27;nan;101590.44;5074604;28;20056;-61
2022/11/30 07:59:27;;;;;;;;;;;;;;;31.15;nan;101585.06;5088344;28;20378;-60
2022/11/30 08:01:53;;;;;;;;;;;;;;;31.11;nan;101590.66;5080841;28;20451;-60
2022/11/30 08:04:19;;;;;;;;;;;;;;;31.09;nan;101592.22;5080729;28;20019;-61
2022/11/30 08:06:46;;;;;;;;;;;;;;;31.20;nan;101595.97;5087794;28;19963;-60
2022/11/30 08:09:12;;;;;;;;;;;;;;;31.01;nan;101596.13;5076885;28;19924;-61
2022/11/30 08:11:38;;;;;;;;;;;;;;;31.12;nan;101588.63;5090223;28;20459;-61
2022/11/30 08:14:05;;;;;;;;;;;;;;;31.12;nan;101586.63;5085401;28;19924;-60
2022/11/30 08:16:34;;;;;;;;;;;;;;;31.10;nan;101582.59;5082334;28;19923;-61
2022/11/30 08:19:00;;;;;;;;;;;;;;;31.22;nan;101582.34;5092379;28;19927;-61
2022/11/30 08:21:27;;;;;;;;;;;;;;;31.15;nan;101579.44;5080303;28;19916;-59
2022/11/30 08:23:56;;;;;;;;;;;;;;;30.89;nan;101583.16;5087794;28;19920;-60
2022/11/30 08:26:24;;;;;;;;;;;;;;;31.08;nan;101579.38;5083281;28;20007;-59
2022/11/30 08:28:51;;;;;;;;;;;;;;;30.86;nan;101572.69;5091992;28;19920;-60
2022/11/30 08:31:17;;;;;;;;;;;;;;;30.70;nan;101580.50;5078796;28;19973;-61
2022/11/30 08:33:44;;;;;;;;;;;;;;;30.76;nan;101577.00;5088383;28;19928;-59
2022/11/30 08:36:11;;;;;;;;;;;;;;;30.85;nan;101582.28;5085897;28;19961;-59
2022/11/30 08:38:38;;;;;;;;;;;;;;;31.05;nan;101575.31;5080795;28;19920;-60
2022/11/30 08:41:05;;;;;;;;;;;;;;;31.18;nan;101573.88;5077200;28;20007;-62
2022/11/30 08:43:32;;;;;;;;;;;;;;;31.23;nan;101567.09;5076254;28;20271;-60
2022/11/30 08:45:58;;;;;;;;;;;;;;;31.19;nan;101569.88;5076813;28;19971;-59
2022/11/30 08:48:24;;;;;;;;;;;;;;;31.23;nan;101567.09;5076156;28;19950;-61
2022/11/30 08:50:50;;;;;;;;;;;;;;;31.22;nan;101568.31;5076286;28;20308;-61
2022/11/30 08:53:17;;;;;;;;;;;;;;;31.26;nan;101564.34;5077024;28;19920;-60
2022/11/30 08:55:43;;;;;;;;;;;;;;;31.14;nan;101560.97;5073003;28;19924;-59
2022/11/30 08:58:09;;;;;;;;;;;;;;;30.98;nan;101564.81;5084382;28;19924;-62
2022/11/30 09:00:35;;;;;;;;;;;;;;;30.97;nan;101563.19;5080259;28;20032;-59
2022/11/30 09:03:01;;;;;;;;;;;;;;;30.90;nan;101556.72;5091007;28;20397;-59
2022/11/30 09:05:28;;;;;;;;;;;;;;;30.86;nan;101562.25;5079796;28;19922;-60
2022/11/30 09:07:54;;;;;;;;;;;;;;;30.61;nan;101566.75;5084413;28;19920;-61
2022/11/30 09:10:20;;;;;;;;;;;;;;;30.82;nan;101561.41;5086682;28;19970;-62
2022/11/30 09:12:46;;;;;;;;;;;;;;;30.94;nan;101558.38;5079420;28;19947;-62
2022/11/30 09:15:12;;;;;;;;;;;;;;;30.88;nan;101550.66;5091582;28;20003;-62
2022/11/30 09:17:39;;;;;;;;;;;;;;;30.39;nan;101548.81;5081008;28;19917;-62
2022/11/30 09:20:06;;;;;;;;;;;;;;;30.79;nan;101556.56;5083831;28;19925;-63
2022/11/30 09:22:32;;;;;;;;;;;;;;;30.92;nan;101549.53;5082265;28;19916;-62
2022/11/30 09:24:58;;;;;;;;;;;;;;;30.96;nan;101557.97;5090192;28;19920;-62
2022/11/30 09:27:29;;;;;;;;;;;;;;;31.01;nan;101552.00;5078611;28;19942;-62
2022/11/30 09:29:55;;;;;;;;;;;;;;;31.00;nan;101566.44;5086338;28;19928;-60
2022/11/30 09:32:22;;;;;;;;;;;;;;;31.00;nan;101561.63;5086442;28;19919;-61
2022/11/30 09:34:48;;;;;;;;;;;;;;;30.90;nan;101557.53;5078792;28;20388;-62
2022/11/30 09:37:14;;;;;;;;;;;;;;;30.93;nan;101555.94;5091001;28;19925;-62
2022/11/30 09:39:40;;;;;;;;;;;;;;;30.91;nan;101553.53;5080846;28;19927;-60
2022/11/30 09:42:16;;;;;;;;;;;;;;;30.88;nan;101559.91;5084405;28;19916;-61
2022/11/30 09:44:49;;;;;;;;;;;;;;;30.86;nan;101561.44;5089458;28;20012;-61
2022/11/30 09:47:39;;;;;;;;;;;;;;;30.93;nan;101561.56;5077578;28;19920;-60
2022/11/30 09:50:11;;;;;;;;;;;;;;;30.72;nan;101555.69;5078904;28;19925;-60
2022/11/30 09:52:43;;;;;;;;;;;;;;;30.60;nan;101554.72;5082628;28;20011;-60
2022/11/30 09:55:13;;;;;;;;;;;;;;;30.65;nan;101553.59;5090940;28;19931;-60
2022/11/30 09:57:39;;;;;;;;;;;;;;;30.60;nan;101548.28;5080380;28;19973;-60
2022/11/30 10:00:13;;;;;;;;;;;;;;;30.30;nan;101557.50;5084066;28;20420;-60
2022/11/30 10:02:40;;;;;;;;;;;;;;;30.52;nan;101549.38;5088763;28;19977;-61
2022/11/30 10:05:15;;;;;;;;;;;;;;;30.60;nan;101553.91;5077281;28;19916;-61
2022/11/30 10:07:44;;;;;;;;;;;;;;;30.62;nan;101552.34;5087464;28;20037;-61
2022/11/30 10:10:22;;;;;;;;;;;;;;;30.54;nan;101561.06;5084310;28;20366;-61
2022/11/30 10:13:04;;;;;;;;;;;;;;;30.44;nan;101561.69;5077765;28;19935;-61
2022/11/30 10:15:50;;;;;;;;;;;;;;;30.46;nan;101564.94;5078686;28;19972;-60
2022/11/30 10:18:22;;;;;;;;;;;;;;;30.43;nan;101560.09;5082073;28;19928;-60
2022/11/30 10:21:02;;;;;;;;;;;;;;;30.43;nan;101551.69;5089405;28;19920;-60
2022/11/30 10:23:34;;;;;;;;;;;;;;;30.50;nan;101562.97;5078276;28;19920;-61
2022/11/30 10:26:07;;;;;;;;;;;;;;;30.40;nan;101561.66;5084133;28;19967;-60
2022/11/30 10:28:34;;;;;;;;;;;;;;;30.32;nan;101559.94;5086888;28;19980;-60
2022/11/30 10:31:00;;;;;;;;;;;;;;;30.34;nan;101551.94;5074942;28;19970;-59
2022/11/30 10:33:31;;;;;;;;;;;;;;;30.26;nan;101556.66;5086837;28;20397;-60
2022/11/30 10:36:02;;;;;;;;;;;;;;;30.14;nan;101564.47;5080146;28;20278;-60
2022/11/30 10:38:48;;;;;;;;;;;;;;;30.10;nan;101563.63;5078299;28;19925;-62
2022/11/30 10:41:28;;;;;;;;;;;;;;;30.10;nan;101569.22;5088086;28;19950;-60
2022/11/30 10:43:58;;;;;;;;;;;;;;;30.04;nan;101571.56;5079966;28;20390;-60
2022/11/30 10:46:30;;;;;;;;;;;;;;;29.94;nan;101577.75;5080795;28;19931;-60
2022/11/30 10:49:04;;;;;;;;;;;;;;;29.82;nan;101569.56;5089783;28;19924;-61
2022/11/30 10:51:36;;;;;;;;;;;;;;;29.99;nan;101564.25;5078052;28;20392;-60
2022/11/30 10:54:09;;;;;;;;;;;;;;;29.98;nan;101576.66;5085020;28;20382;-60
2022/11/30 10:56:36;;;;;;;;;;;;;;;30.03;nan;101575.50;5079130;28;19928;-60
2022/11/30 10:59:05;;;;;;;;;;;;;;;30.07;nan;101570.78;5089667;28;20438;-58
2022/11/30 11:01:36;;;;;;;;;;;;;;;30.08;nan;101566.81;5078085;28;20275;-60
2022/11/30 11:04:08;;;;;;;;;;;;;;;30.06;nan;101563.56;5083622;28;19952;-58
2022/11/30 11:06:35;;;;;;;;;;;;;;;30.01;nan;101556.28;5086870;28;19924;-60
2022/11/30 11:09:28;;;;;;;;;;;;;;;30.02;nan;101557.09;5076051;28;19936;-59
2022/11/30 11:11:56;;;;;;;;;;;;;;;30.01;nan;101559.06;5082801;28;20319;-59
2022/11/30 11:14:23;;;;;;;;;;;;;;;29.94;nan;101566.56;5084865;28;20393;-60
2022/11/30 11:17:03;;;;;;;;;;;;;;;29.95;nan;101559.75;5076768;28;19931;-60
2022/11/30 11:19:30;;;;;;;;;;;;;;;29.89;nan;101558.47;5077655;28;19935;-59
2022/11/30 11:21:57;;;;;;;;;;;;;;;29.87;nan;101549.63;5083864;28;19923;-59
2022/11/30 11:24:27;;;;;;;;;;;;;;;29.85;nan;101557.63;5084213;28;20343;-59
2022/11/30 11:26:54;;;;;;;;;;;;;;;29.79;nan;101557.91;5076360;28;20020;-58
2022/11/30 11:29:30;;;;;;;;;;;;;;;29.81;nan;101549.16;5059768;28;19920;-60
2022/11/30 11:32:06;;;;;;;;;;;;;;;29.84;nan;101551.19;5084255;28;19920;-59
2022/11/30 11:34:33;;;;;;;;;;;;;;;29.83;nan;101548.78;5086170;28;19959;-59
2022/11/30 11:37:07;;;;;;;;;;;;;;;29.78;nan;101544.28;5075922;28;20007;-59
2022/11/30 11:39:33;;;;;;;;;;;;;;;29.69;nan;101541.75;5087270;28;19921;-60
2022/11/30 11:41:59;;;;;;;;;;;;;;;29.56;nan;101545.94;5081772;28;20391;-59
2022/11/30 11:44:26;;;;;;;;;;;;;;;29.66;nan;101544.50;5081424;28;20344;-61
2022/11/30 11:46:57;;;;;;;;;;;;;;;29.66;nan;101538.91;5091778;28;19977;-61
2022/11/30 11:49:28;;;;;;;;;;;;;;;29.63;nan;101548.88;5064667;28;19921;-61
2022/11/30 11:52:01;;;;;;;;;;;;;;;29.64;nan;101542.06;5088518;28;19924;-61
2022/11/30 11:54:51;;;;;;;;;;;;;;;29.55;nan;101552.72;5082009;28;19996;-61
2022/11/30 11:57:19;;;;;;;;;;;;;;;29.59;nan;101547.97;5074402;28;19920;-61
2022/11/30 11:59:49;;;;;;;;;;;;;;;29.69;nan;101546.53;5089404;28;19916;-60
2022/11/30 12:02:21;;;;;;;;;;;;;;;29.73;nan;101551.00;5087427;28;19920;-60
2022/11/30 12:04:50;;;;;;;;;;;;;;;29.68;nan;101551.34;5080700;28;19920;-60
2022/11/30 12:07:20;;;;;;;;;;;;;;;29.63;nan;101551.66;5092784;28;20379;-61
2022/11/30 12:09:54;;;;;;;;;;;;;;;29.58;nan;101554.75;5083616;28;19943;-62
2022/11/30 12:12:20;;;;;;;;;;;;;;;29.56;nan;101557.13;5084102;28;20286;-61
2022/11/30 12:14:46;;;;;;;;;;;;;;;29.60;nan;101558.00;5091810;28;19916;-61
2022/11/30 12:17:22;;;;;;;;;;;;;;;29.63;nan;101550.84;5079095;28;19931;-61
2022/11/30 12:19:51;;;;;;;;;;;;;;;29.57;nan;101564.34;5088518;28;19971;-61
2022/11/30 12:22:24;;;;;;;;;;;;;;;29.44;nan;101554.47;5084368;28;21910;-61
2022/11/30 12:24:51;;;;;;;;;;;;;;;29.32;nan;101552.69;5092166;28;20450;-60
2022/11/30 12:27:29;;;;;;;;;;;;;;;29.38;nan;101553.19;5079189;28;19916;-61
2022/11/30 12:30:14;;;;;;;;;;;;;;;29.21;nan;101551.66;5087537;28;20380;-61
2022/11/30 12:32:46;;;;;;;;;;;;;;;29.16;nan;101555.59;5090679;28;19928;-60
2022/11/30 12:35:22;;;;;;;;;;;;;;;29.09;nan;101554.66;5079185;28;19921;-60
2022/11/30 12:37:48;;;;;;;;;;;;;;;29.25;nan;101557.34;5088262;28;19931;-59
2022/11/30 12:40:33;;;;;;;;;;;;;;;29.33;nan;101554.31;5086728;28;19917;-58
2022/11/30 12:42:59;;;;;;;;;;;;;;;29.36;nan;101553.56;5078951;28;19920;-60
2022/11/30 12:45:32;;;;;;;;;;;;;;;29.27;nan;101557.78;5091498;28;19971;-61
2022/11/30 12:47:58;;;;;;;;;;;;;;;29.03;nan;101556.94;5084352;28;19920;-60
2022/11/30 12:50:24;;;;;;;;;;;;;;;29.05;nan;101554.56;5082893;28;19920;-62
2022/11/30 12:53:01;;;;;;;;;;;;;;;29.23;nan;101557.72;5083660;28;20379;-61
2022/11/30 12:55:30;;;;;;;;;;;;;;;29.27;nan;101557.78;5064582;28;19962;-60
2022/11/30 12:58:06;;;;;;;;;;;;;;;29.26;nan;101553.34;5086776;28;19920;-60
2022/11/30 13:00:44;;;;;;;;;;;;;;;29.04;nan;101560.53;5084513;28;20496;-60
2022/11/30 13:03:23;;;;;;;;;;;;;;;28.82;nan;101559.28;5079283;28;19921;-60
2022/11/30 13:05:52;;;;;;;;;;;;;;;28.99;nan;101561.66;5087838;28;19924;-58